sensor_id;sensor_type;location;lat;lon;timestamp;P1;durP1;ratioP1;P2;durP2;ratioP2
8490;SDS011;4282;49.986;7.938;2023-04-16T00:01:15;11.17;;;8.13;;
8490;SDS011;4282;49.986;7.938;2023-04-16T00:03:43;8.53;;;7.57;;
8490;SDS011;4282;49.986;7.938;2023-04-16T00:06:12;9.63;;;8.10;;
8490;SDS011;4282;49.986;7.938;2023-04-16T00:08:40;10.53;;;8.23;;
8490;SDS011;4282;49.986;7.938;2023-04-16T00:11:08;9.13;;;7.77;;
8490;SDS011;4282;49.986;7.938;2023-04-16T00:13:39;9.30;;;7.50;;
8490;SDS011;4282;49.986;7.938;2023-04-16T00:16:07;9.87;;;8.13;;
8490;SDS011;4282;49.986;7.938;2023-04-16T00:18:35;11.23;;;9.00;;
8490;SDS011;4282;49.986;7.938;2023-04-16T00:21:04;10.50;;;8.57;;
8490;SDS011;4282;49.986;7.938;2023-04-16T00:23:32;10.50;;;8.07;;
8490;SDS011;4282;49.986;7.938;2023-04-16T00:26:00;9.97;;;8.20;;
8490;SDS011;4282;49.986;7.938;2023-04-16T00:28:28;9.80;;;8.80;;
8490;SDS011;4282;49.986;7.938;2023-04-16T00:30:59;11.30;;;9.80;;
8490;SDS011;4282;49.986;7.938;2023-04-16T00:33:28;10.97;;;9.17;;
8490;SDS011;4282;49.986;7.938;2023-04-16T00:35:56;11.37;;;9.27;;
8490;SDS011;4282;49.986;7.938;2023-04-16T00:38:24;13.83;;;9.90;;
8490;SDS011;4282;49.986;7.938;2023-04-16T00:40:54;12.37;;;9.47;;
8490;SDS011;4282;49.986;7.938;2023-04-16T00:43:23;11.77;;;9.10;;
8490;SDS011;4282;49.986;7.938;2023-04-16T00:45:52;12.13;;;9.13;;
8490;SDS011;4282;49.986;7.938;2023-04-16T00:48:23;10.40;;;9.03;;
8490;SDS011;4282;49.986;7.938;2023-04-16T00:50:52;11.83;;;9.33;;
8490;SDS011;4282;49.986;7.938;2023-04-16T00:53:21;12.30;;;9.03;;
8490;SDS011;4282;49.986;7.938;2023-04-16T00:55:49;12.90;;;9.90;;
8490;SDS011;4282;49.986;7.938;2023-04-16T00:58:17;12.90;;;10.83;;
8490;SDS011;4282;49.986;7.938;2023-04-16T01:00:45;13.33;;;10.60;;
8490;SDS011;4282;49.986;7.938;2023-04-16T01:03:14;14.90;;;10.93;;
8490;SDS011;4282;49.986;7.938;2023-04-16T01:05:44;13.47;;;9.90;;
8490;SDS011;4282;49.986;7.938;2023-04-16T01:08:14;15.43;;;11.50;;
8490;SDS011;4282;49.986;7.938;2023-04-16T01:10:43;12.90;;;10.30;;
8490;SDS011;4282;49.986;7.938;2023-04-16T01:13:11;11.83;;;10.37;;
8490;SDS011;4282;49.986;7.938;2023-04-16T01:15:40;12.30;;;10.10;;
8490;SDS011;4282;49.986;7.938;2023-04-16T01:18:12;15.40;;;11.57;;
8490;SDS011;4282;49.986;7.938;2023-04-16T01:20:44;13.17;;;11.33;;
8490;SDS011;4282;49.986;7.938;2023-04-16T01:23:12;15.27;;;11.70;;
8490;SDS011;4282;49.986;7.938;2023-04-16T01:25:42;13.60;;;10.30;;
8490;SDS011;4282;49.986;7.938;2023-04-16T01:28:11;12.33;;;10.47;;
8490;SDS011;4282;49.986;7.938;2023-04-16T01:30:39;13.17;;;11.40;;
8490;SDS011;4282;49.986;7.938;2023-04-16T01:33:08;12.83;;;9.90;;
8490;SDS011;4282;49.986;7.938;2023-04-16T01:35:37;13.00;;;10.33;;
8490;SDS011;4282;49.986;7.938;2023-04-16T01:38:08;13.53;;;11.33;;
8490;SDS011;4282;49.986;7.938;2023-04-16T01:40:37;14.67;;;10.83;;
8490;SDS011;4282;49.986;7.938;2023-04-16T01:43:05;11.43;;;7.57;;
8490;SDS011;4282;49.986;7.938;2023-04-16T01:45:33;12.73;;;9.20;;
8490;SDS011;4282;49.986;7.938;2023-04-16T01:48:02;12.53;;;9.67;;
8490;SDS011;4282;49.986;7.938;2023-04-16T01:50:30;14.70;;;10.03;;
8490;SDS011;4282;49.986;7.938;2023-04-16T01:52:59;15.87;;;10.90;;
8490;SDS011;4282;49.986;7.938;2023-04-16T01:55:31;15.47;;;12.17;;
8490;SDS011;4282;49.986;7.938;2023-04-16T01:58:00;15.00;;;10.90;;
8490;SDS011;4282;49.986;7.938;2023-04-16T02:00:28;16.17;;;11.47;;
8490;SDS011;4282;49.986;7.938;2023-04-16T02:02:56;16.60;;;12.60;;
8490;SDS011;4282;49.986;7.938;2023-04-16T02:05:25;14.57;;;11.50;;
8490;SDS011;4282;49.986;7.938;2023-04-16T02:07:53;16.10;;;11.40;;
8490;SDS011;4282;49.986;7.938;2023-04-16T02:10:21;15.33;;;10.90;;
8490;SDS011;4282;49.986;7.938;2023-04-16T02:12:52;14.93;;;12.47;;
8490;SDS011;4282;49.986;7.938;2023-04-16T02:15:20;15.30;;;11.80;;
8490;SDS011;4282;49.986;7.938;2023-04-16T02:17:49;16.13;;;11.30;;
8490;SDS011;4282;49.986;7.938;2023-04-16T02:20:20;13.47;;;11.37;;
8490;SDS011;4282;49.986;7.938;2023-04-16T02:22:48;13.77;;;10.73;;
8490;SDS011;4282;49.986;7.938;2023-04-16T02:25:17;14.43;;;9.83;;
8490;SDS011;4282;49.986;7.938;2023-04-16T02:27:45;12.80;;;8.80;;
8490;SDS011;4282;49.986;7.938;2023-04-16T02:30:16;13.30;;;8.77;;
8490;SDS011;4282;49.986;7.938;2023-04-16T02:32:44;11.07;;;8.37;;
8490;SDS011;4282;49.986;7.938;2023-04-16T02:35:13;12.90;;;8.77;;
8490;SDS011;4282;49.986;7.938;2023-04-16T02:37:41;12.97;;;8.40;;
8490;SDS011;4282;49.986;7.938;2023-04-16T02:40:10;11.37;;;8.20;;
8490;SDS011;4282;49.986;7.938;2023-04-16T02:42:38;11.83;;;8.43;;
8490;SDS011;4282;49.986;7.938;2023-04-16T02:45:07;10.47;;;7.77;;
8490;SDS011;4282;49.986;7.938;2023-04-16T02:47:39;9.67;;;7.53;;
8490;SDS011;4282;49.986;7.938;2023-04-16T02:50:08;9.53;;;7.10;;
8490;SDS011;4282;49.986;7.938;2023-04-16T02:52:37;10.50;;;7.43;;
8490;SDS011;4282;49.986;7.938;2023-04-16T02:55:05;11.73;;;7.70;;
8490;SDS011;4282;49.986;7.938;2023-04-16T02:57:34;8.93;;;6.53;;
8490;SDS011;4282;49.986;7.938;2023-04-16T03:00:02;10.33;;;6.83;;
8490;SDS011;4282;49.986;7.938;2023-04-16T03:02:31;9.83;;;7.10;;
8490;SDS011;4282;49.986;7.938;2023-04-16T03:05:02;9.67;;;7.17;;
8490;SDS011;4282;49.986;7.938;2023-04-16T03:07:31;9.07;;;6.90;;
8490;SDS011;4282;49.986;7.938;2023-04-16T03:09:59;10.77;;;7.57;;
8490;SDS011;4282;49.986;7.938;2023-04-16T03:12:27;10.07;;;7.23;;
8490;SDS011;4282;49.986;7.938;2023-04-16T03:14:56;9.97;;;7.17;;
8490;SDS011;4282;49.986;7.938;2023-04-16T03:17:24;9.77;;;6.80;;
8490;SDS011;4282;49.986;7.938;2023-04-16T03:19:52;9.17;;;6.43;;
8490;SDS011;4282;49.986;7.938;2023-04-16T03:22:23;9.53;;;6.97;;
8490;SDS011;4282;49.986;7.938;2023-04-16T03:24:52;10.47;;;7.13;;
8490;SDS011;4282;49.986;7.938;2023-04-16T03:27:20;10.57;;;7.80;;
8490;SDS011;4282;49.986;7.938;2023-04-16T03:29:48;9.73;;;7.67;;
8490;SDS011;4282;49.986;7.938;2023-04-16T03:32:17;11.10;;;6.87;;
8490;SDS011;4282;49.986;7.938;2023-04-16T03:34:45;10.20;;;7.10;;
8490;SDS011;4282;49.986;7.938;2023-04-16T03:37:14;11.53;;;7.30;;
8490;SDS011;4282;49.986;7.938;2023-04-16T03:39:44;9.47;;;6.90;;
8490;SDS011;4282;49.986;7.938;2023-04-16T03:42:12;11.43;;;6.90;;
8490;SDS011;4282;49.986;7.938;2023-04-16T03:44:41;12.50;;;7.00;;
8490;SDS011;4282;49.986;7.938;2023-04-16T03:47:09;12.83;;;7.83;;
8490;SDS011;4282;49.986;7.938;2023-04-16T03:49:37;11.33;;;6.97;;
8490;SDS011;4282;49.986;7.938;2023-04-16T03:52:05;12.77;;;8.47;;
8490;SDS011;4282;49.986;7.938;2023-04-16T03:54:35;11.20;;;8.30;;
8490;SDS011;4282;49.986;7.938;2023-04-16T03:57:06;13.30;;;8.47;;
8490;SDS011;4282;49.986;7.938;2023-04-16T03:59:34;15.93;;;8.90;;
8490;SDS011;4282;49.986;7.938;2023-04-16T04:02:02;12.07;;;7.87;;
8490;SDS011;4282;49.986;7.938;2023-04-16T04:04:30;10.87;;;8.43;;
8490;SDS011;4282;49.986;7.938;2023-04-16T04:06:59;13.17;;;8.47;;
8490;SDS011;4282;49.986;7.938;2023-04-16T04:09:27;14.87;;;8.57;;
8490;SDS011;4282;49.986;7.938;2023-04-16T04:11:55;16.37;;;9.57;;
8490;SDS011;4282;49.986;7.938;2023-04-16T04:14:26;11.90;;;7.80;;
8490;SDS011;4282;49.986;7.938;2023-04-16T04:16:54;14.13;;;8.07;;
8490;SDS011;4282;49.986;7.938;2023-04-16T04:19:22;12.07;;;8.37;;
8490;SDS011;4282;49.986;7.938;2023-04-16T04:21:50;11.10;;;7.80;;
8490;SDS011;4282;49.986;7.938;2023-04-16T04:24:18;12.20;;;8.87;;
8490;SDS011;4282;49.986;7.938;2023-04-16T04:26:47;11.70;;;8.00;;
8490;SDS011;4282;49.986;7.938;2023-04-16T04:29:15;10.50;;;7.80;;
8490;SDS011;4282;49.986;7.938;2023-04-16T04:31:46;15.53;;;9.73;;
8490;SDS011;4282;49.986;7.938;2023-04-16T04:34:14;13.63;;;9.53;;
8490;SDS011;4282;49.986;7.938;2023-04-16T04:36:42;12.93;;;9.40;;
8490;SDS011;4282;49.986;7.938;2023-04-16T04:39:10;12.43;;;8.70;;
8490;SDS011;4282;49.986;7.938;2023-04-16T04:41:38;14.63;;;9.57;;
8490;SDS011;4282;49.986;7.938;2023-04-16T04:44:07;14.60;;;9.70;;
8490;SDS011;4282;49.986;7.938;2023-04-16T04:46:35;15.17;;;9.53;;
8490;SDS011;4282;49.986;7.938;2023-04-16T04:49:06;15.80;;;10.87;;
8490;SDS011;4282;49.986;7.938;2023-04-16T04:51:34;14.70;;;10.87;;
8490;SDS011;4282;49.986;7.938;2023-04-16T04:54:02;14.83;;;9.97;;
8490;SDS011;4282;49.986;7.938;2023-04-16T04:56:31;14.87;;;9.63;;
8490;SDS011;4282;49.986;7.938;2023-04-16T04:58:59;15.20;;;9.93;;
8490;SDS011;4282;49.986;7.938;2023-04-16T05:01:27;13.83;;;9.33;;
8490;SDS011;4282;49.986;7.938;2023-04-16T05:03:56;16.00;;;10.57;;
8490;SDS011;4282;49.986;7.938;2023-04-16T05:06:27;15.33;;;9.43;;
8490;SDS011;4282;49.986;7.938;2023-04-16T05:08:55;16.67;;;10.80;;
8490;SDS011;4282;49.986;7.938;2023-04-16T05:11:23;14.20;;;10.13;;
8490;SDS011;4282;49.986;7.938;2023-04-16T05:13:51;16.10;;;10.23;;
8490;SDS011;4282;49.986;7.938;2023-04-16T05:16:19;17.27;;;9.97;;
8490;SDS011;4282;49.986;7.938;2023-04-16T05:18:48;17.80;;;10.00;;
8490;SDS011;4282;49.986;7.938;2023-04-16T05:21:16;14.83;;;9.93;;
8490;SDS011;4282;49.986;7.938;2023-04-16T05:23:47;16.63;;;9.43;;
8490;SDS011;4282;49.986;7.938;2023-04-16T05:26:15;16.97;;;10.43;;
8490;SDS011;4282;49.986;7.938;2023-04-16T05:28:43;16.43;;;9.63;;
8490;SDS011;4282;49.986;7.938;2023-04-16T05:31:11;13.57;;;9.10;;
8490;SDS011;4282;49.986;7.938;2023-04-16T05:33:40;12.70;;;9.07;;
8490;SDS011;4282;49.986;7.938;2023-04-16T05:36:08;13.07;;;9.17;;
8490;SDS011;4282;49.986;7.938;2023-04-16T05:38:36;15.43;;;9.87;;
8490;SDS011;4282;49.986;7.938;2023-04-16T05:41:07;14.70;;;8.13;;
8490;SDS011;4282;49.986;7.938;2023-04-16T05:43:35;12.60;;;8.67;;
8490;SDS011;4282;49.986;7.938;2023-04-16T05:46:03;13.30;;;8.27;;
8490;SDS011;4282;49.986;7.938;2023-04-16T05:48:31;15.27;;;8.90;;
8490;SDS011;4282;49.986;7.938;2023-04-16T05:51:00;13.70;;;9.60;;
8490;SDS011;4282;49.986;7.938;2023-04-16T05:53:28;12.50;;;8.20;;
8490;SDS011;4282;49.986;7.938;2023-04-16T05:55:57;12.83;;;7.97;;
8490;SDS011;4282;49.986;7.938;2023-04-16T05:58:27;10.13;;;7.87;;
8490;SDS011;4282;49.986;7.938;2023-04-16T06:00:56;10.73;;;7.67;;
8490;SDS011;4282;49.986;7.938;2023-04-16T06:03:25;11.57;;;7.50;;
8490;SDS011;4282;49.986;7.938;2023-04-16T06:05:53;11.53;;;7.07;;
8490;SDS011;4282;49.986;7.938;2023-04-16T06:08:21;11.50;;;7.87;;
8490;SDS011;4282;49.986;7.938;2023-04-16T06:10:49;13.60;;;9.20;;
8490;SDS011;4282;49.986;7.938;2023-04-16T06:13:18;12.70;;;8.10;;
8490;SDS011;4282;49.986;7.938;2023-04-16T06:15:48;12.50;;;8.43;;
8490;SDS011;4282;49.986;7.938;2023-04-16T06:18:17;14.90;;;8.80;;
8490;SDS011;4282;49.986;7.938;2023-04-16T06:20:45;15.10;;;9.97;;
8490;SDS011;4282;49.986;7.938;2023-04-16T06:23:14;12.17;;;9.10;;
8490;SDS011;4282;49.986;7.938;2023-04-16T06:25:42;15.27;;;9.63;;
8490;SDS011;4282;49.986;7.938;2023-04-16T06:28:10;14.70;;;9.67;;
8490;SDS011;4282;49.986;7.938;2023-04-16T06:30:38;18.70;;;9.63;;
8490;SDS011;4282;49.986;7.938;2023-04-16T06:33:09;17.00;;;9.93;;
8490;SDS011;4282;49.986;7.938;2023-04-16T06:35:37;16.50;;;10.47;;
8490;SDS011;4282;49.986;7.938;2023-04-16T06:38:06;14.70;;;9.73;;
8490;SDS011;4282;49.986;7.938;2023-04-16T06:40:34;14.60;;;9.63;;
8490;SDS011;4282;49.986;7.938;2023-04-16T06:43:03;15.73;;;8.93;;
8490;SDS011;4282;49.986;7.938;2023-04-16T06:45:31;16.03;;;9.60;;
8490;SDS011;4282;49.986;7.938;2023-04-16T06:47:59;12.90;;;8.37;;
8490;SDS011;4282;49.986;7.938;2023-04-16T06:50:31;14.17;;;9.40;;
8490;SDS011;4282;49.986;7.938;2023-04-16T06:52:59;12.40;;;8.13;;
8490;SDS011;4282;49.986;7.938;2023-04-16T06:55:28;14.60;;;8.67;;
8490;SDS011;4282;49.986;7.938;2023-04-16T06:57:56;11.83;;;8.53;;
8490;SDS011;4282;49.986;7.938;2023-04-16T07:00:24;11.33;;;7.87;;
8490;SDS011;4282;49.986;7.938;2023-04-16T07:02:52;11.83;;;8.30;;
8490;SDS011;4282;49.986;7.938;2023-04-16T07:05:20;15.83;;;9.57;;
8490;SDS011;4282;49.986;7.938;2023-04-16T07:07:51;12.27;;;8.13;;
8490;SDS011;4282;49.986;7.938;2023-04-16T07:10:21;14.73;;;8.17;;
8490;SDS011;4282;49.986;7.938;2023-04-16T07:12:49;11.30;;;8.03;;
8490;SDS011;4282;49.986;7.938;2023-04-16T07:15:18;12.90;;;8.50;;
8490;SDS011;4282;49.986;7.938;2023-04-16T07:17:46;12.80;;;8.07;;
8490;SDS011;4282;49.986;7.938;2023-04-16T07:20:14;11.57;;;8.37;;
8490;SDS011;4282;49.986;7.938;2023-04-16T07:22:42;12.37;;;7.77;;
8490;SDS011;4282;49.986;7.938;2023-04-16T07:25:13;16.07;;;9.10;;
8490;SDS011;4282;49.986;7.938;2023-04-16T07:27:41;13.47;;;8.47;;
8490;SDS011;4282;49.986;7.938;2023-04-16T07:30:10;15.17;;;9.60;;
8490;SDS011;4282;49.986;7.938;2023-04-16T07:32:38;13.63;;;8.73;;
8490;SDS011;4282;49.986;7.938;2023-04-16T07:35:07;13.73;;;8.73;;
8490;SDS011;4282;49.986;7.938;2023-04-16T07:37:35;16.10;;;9.17;;
8490;SDS011;4282;49.986;7.938;2023-04-16T07:40:04;13.47;;;9.93;;
8490;SDS011;4282;49.986;7.938;2023-04-16T07:42:36;14.37;;;9.00;;
8490;SDS011;4282;49.986;7.938;2023-04-16T07:45:05;16.47;;;9.63;;
8490;SDS011;4282;49.986;7.938;2023-04-16T07:47:34;14.00;;;8.83;;
8490;SDS011;4282;49.986;7.938;2023-04-16T07:50:02;15.77;;;9.33;;
8490;SDS011;4282;49.986;7.938;2023-04-16T07:52:31;12.50;;;8.30;;
8490;SDS011;4282;49.986;7.938;2023-04-16T07:54:59;13.10;;;8.70;;
8490;SDS011;4282;49.986;7.938;2023-04-16T07:57:28;15.97;;;9.87;;
8490;SDS011;4282;49.986;7.938;2023-04-16T07:59:58;15.43;;;10.00;;
8490;SDS011;4282;49.986;7.938;2023-04-16T08:02:29;17.27;;;10.47;;
8490;SDS011;4282;49.986;7.938;2023-04-16T08:04:57;16.73;;;10.07;;
8490;SDS011;4282;49.986;7.938;2023-04-16T08:07:26;20.17;;;11.20;;
8490;SDS011;4282;49.986;7.938;2023-04-16T08:09:54;16.97;;;10.00;;
8490;SDS011;4282;49.986;7.938;2023-04-16T08:12:22;15.23;;;10.30;;
8490;SDS011;4282;49.986;7.938;2023-04-16T08:14:50;14.07;;;9.70;;
8490;SDS011;4282;49.986;7.938;2023-04-16T08:17:21;14.83;;;9.73;;
8490;SDS011;4282;49.986;7.938;2023-04-16T08:19:49;16.97;;;10.80;;
8490;SDS011;4282;49.986;7.938;2023-04-16T08:22:18;15.10;;;9.93;;
8490;SDS011;4282;49.986;7.938;2023-04-16T08:24:46;17.63;;;10.33;;
8490;SDS011;4282;49.986;7.938;2023-04-16T08:27:14;15.13;;;10.60;;
8490;SDS011;4282;49.986;7.938;2023-04-16T08:29:42;14.93;;;9.13;;
8490;SDS011;4282;49.986;7.938;2023-04-16T08:32:11;16.50;;;10.33;;
8490;SDS011;4282;49.986;7.938;2023-04-16T08:34:42;14.10;;;9.77;;
8490;SDS011;4282;49.986;7.938;2023-04-16T08:37:13;14.33;;;9.17;;
8490;SDS011;4282;49.986;7.938;2023-04-16T08:39:41;16.23;;;10.57;;
8490;SDS011;4282;49.986;7.938;2023-04-16T08:42:10;14.20;;;9.57;;
8490;SDS011;4282;49.986;7.938;2023-04-16T08:44:42;17.33;;;11.20;;
8490;SDS011;4282;49.986;7.938;2023-04-16T08:47:11;14.90;;;9.43;;
8490;SDS011;4282;49.986;7.938;2023-04-16T08:49:43;16.03;;;11.20;;
8490;SDS011;4282;49.986;7.938;2023-04-16T08:52:15;16.23;;;10.23;;
8490;SDS011;4282;49.986;7.938;2023-04-16T08:54:47;17.50;;;11.10;;
8490;SDS011;4282;49.986;7.938;2023-04-16T08:57:20;17.70;;;10.63;;
8490;SDS011;4282;49.986;7.938;2023-04-16T08:59:49;16.80;;;11.00;;
8490;SDS011;4282;49.986;7.938;2023-04-16T09:02:18;15.80;;;11.17;;
8490;SDS011;4282;49.986;7.938;2023-04-16T09:04:49;15.53;;;10.93;;
8490;SDS011;4282;49.986;7.938;2023-04-16T09:07:18;17.50;;;10.17;;
8490;SDS011;4282;49.986;7.938;2023-04-16T09:09:47;14.13;;;11.07;;
8490;SDS011;4282;49.986;7.938;2023-04-16T09:12:16;17.77;;;11.10;;
8490;SDS011;4282;49.986;7.938;2023-04-16T09:14:45;17.77;;;11.37;;
8490;SDS011;4282;49.986;7.938;2023-04-16T09:17:15;18.77;;;12.00;;
8490;SDS011;4282;49.986;7.938;2023-04-16T09:19:44;17.97;;;11.70;;
8490;SDS011;4282;49.986;7.938;2023-04-16T09:22:14;15.67;;;10.67;;
8490;SDS011;4282;49.986;7.938;2023-04-16T09:24:43;19.70;;;10.93;;
8490;SDS011;4282;49.986;7.938;2023-04-16T09:27:11;18.17;;;12.30;;
8490;SDS011;4282;49.986;7.938;2023-04-16T09:29:40;18.80;;;11.43;;
8490;SDS011;4282;49.986;7.938;2023-04-16T09:32:09;18.10;;;12.30;;
8490;SDS011;4282;49.986;7.938;2023-04-16T09:37:30;18.40;;;11.97;;
8490;SDS011;4282;49.986;7.938;2023-04-16T09:39:58;19.37;;;12.60;;
8490;SDS011;4282;49.986;7.938;2023-04-16T09:42:28;17.57;;;11.83;;
8490;SDS011;4282;49.986;7.938;2023-04-16T09:44:57;19.77;;;12.83;;
8490;SDS011;4282;49.986;7.938;2023-04-16T09:47:40;20.30;;;12.20;;
8490;SDS011;4282;49.986;7.938;2023-04-16T09:50:09;15.67;;;11.07;;
8490;SDS011;4282;49.986;7.938;2023-04-16T09:52:46;18.93;;;12.57;;
8490;SDS011;4282;49.986;7.938;2023-04-16T09:55:15;19.20;;;12.70;;
8490;SDS011;4282;49.986;7.938;2023-04-16T09:57:44;18.47;;;12.03;;
8490;SDS011;4282;49.986;7.938;2023-04-16T10:00:16;18.60;;;12.57;;
8490;SDS011;4282;49.986;7.938;2023-04-16T10:02:45;18.90;;;12.50;;
8490;SDS011;4282;49.986;7.938;2023-04-16T10:05:14;18.30;;;12.67;;
8490;SDS011;4282;49.986;7.938;2023-04-16T10:07:46;20.47;;;12.63;;
8490;SDS011;4282;49.986;7.938;2023-04-16T10:10:15;20.03;;;13.37;;
8490;SDS011;4282;49.986;7.938;2023-04-16T10:12:43;18.70;;;11.87;;
8490;SDS011;4282;49.986;7.938;2023-04-16T10:15:11;21.20;;;12.77;;
8490;SDS011;4282;49.986;7.938;2023-04-16T10:17:40;18.73;;;11.90;;
8490;SDS011;4282;49.986;7.938;2023-04-16T10:20:08;16.90;;;11.67;;
8490;SDS011;4282;49.986;7.938;2023-04-16T10:22:37;18.20;;;11.70;;
8490;SDS011;4282;49.986;7.938;2023-04-16T10:25:08;17.47;;;12.23;;
8490;SDS011;4282;49.986;7.938;2023-04-16T10:27:37;18.53;;;12.33;;
8490;SDS011;4282;49.986;7.938;2023-04-16T10:30:05;16.03;;;10.80;;
8490;SDS011;4282;49.986;7.938;2023-04-16T10:32:35;18.70;;;12.20;;
8490;SDS011;4282;49.986;7.938;2023-04-16T10:35:04;16.63;;;10.60;;
8490;SDS011;4282;49.986;7.938;2023-04-16T10:37:33;17.13;;;11.93;;
8490;SDS011;4282;49.986;7.938;2023-04-16T10:40:01;20.53;;;12.20;;
8490;SDS011;4282;49.986;7.938;2023-04-16T10:42:55;19.10;;;12.43;;
8490;SDS011;4282;49.986;7.938;2023-04-16T10:45:30;19.10;;;11.43;;
8490;SDS011;4282;49.986;7.938;2023-04-16T10:48:03;18.33;;;11.50;;
8490;SDS011;4282;49.986;7.938;2023-04-16T10:50:34;20.00;;;12.63;;
8490;SDS011;4282;49.986;7.938;2023-04-16T10:53:16;18.30;;;11.80;;
8490;SDS011;4282;49.986;7.938;2023-04-16T10:58:40;18.93;;;12.80;;
8490;SDS011;4282;49.986;7.938;2023-04-16T11:01:12;23.30;;;13.93;;
8490;SDS011;4282;49.986;7.938;2023-04-16T11:03:41;24.47;;;15.30;;
8490;SDS011;4282;49.986;7.938;2023-04-16T11:06:11;23.87;;;14.77;;
8490;SDS011;4282;49.986;7.938;2023-04-16T11:08:41;22.57;;;14.97;;
8490;SDS011;4282;49.986;7.938;2023-04-16T11:11:12;21.67;;;14.13;;
8490;SDS011;4282;49.986;7.938;2023-04-16T11:13:41;22.77;;;14.10;;
8490;SDS011;4282;49.986;7.938;2023-04-16T11:16:11;22.70;;;14.63;;
8490;SDS011;4282;49.986;7.938;2023-04-16T11:18:40;21.87;;;15.80;;
8490;SDS011;4282;49.986;7.938;2023-04-16T11:21:09;24.03;;;14.93;;
8490;SDS011;4282;49.986;7.938;2023-04-16T11:23:44;22.30;;;13.90;;
8490;SDS011;4282;49.986;7.938;2023-04-16T11:26:24;24.03;;;15.43;;
8490;SDS011;4282;49.986;7.938;2023-04-16T11:28:54;20.90;;;13.93;;
8490;SDS011;4282;49.986;7.938;2023-04-16T11:31:24;20.90;;;14.53;;
8490;SDS011;4282;49.986;7.938;2023-04-16T11:33:54;21.57;;;13.50;;
8490;SDS011;4282;49.986;7.938;2023-04-16T11:36:24;23.47;;;14.40;;
8490;SDS011;4282;49.986;7.938;2023-04-16T11:38:59;20.83;;;14.00;;
8490;SDS011;4282;49.986;7.938;2023-04-16T11:41:30;20.40;;;14.30;;
8490;SDS011;4282;49.986;7.938;2023-04-16T11:43:58;22.00;;;15.10;;
8490;SDS011;4282;49.986;7.938;2023-04-16T11:46:36;18.23;;;13.63;;
8490;SDS011;4282;49.986;7.938;2023-04-16T11:49:05;17.87;;;12.17;;
8490;SDS011;4282;49.986;7.938;2023-04-16T11:51:37;18.73;;;13.80;;
8490;SDS011;4282;49.986;7.938;2023-04-16T11:54:06;20.50;;;14.37;;
8490;SDS011;4282;49.986;7.938;2023-04-16T11:56:38;22.60;;;13.87;;
8490;SDS011;4282;49.986;7.938;2023-04-16T11:59:13;22.60;;;15.67;;
8490;SDS011;4282;49.986;7.938;2023-04-16T12:01:44;21.10;;;15.43;;
8490;SDS011;4282;49.986;7.938;2023-04-16T12:04:14;21.03;;;14.70;;
8490;SDS011;4282;49.986;7.938;2023-04-16T12:09:36;23.73;;;15.47;;
8490;SDS011;4282;49.986;7.938;2023-04-16T12:12:12;22.13;;;14.40;;
8490;SDS011;4282;49.986;7.938;2023-04-16T12:14:54;20.07;;;14.80;;
8490;SDS011;4282;49.986;7.938;2023-04-16T12:17:23;22.37;;;14.97;;
8490;SDS011;4282;49.986;7.938;2023-04-16T12:19:54;20.87;;;14.63;;
8490;SDS011;4282;49.986;7.938;2023-04-16T12:22:27;23.30;;;15.93;;
8490;SDS011;4282;49.986;7.938;2023-04-16T12:24:59;22.33;;;14.67;;
8490;SDS011;4282;49.986;7.938;2023-04-16T12:27:42;19.93;;;15.17;;
8490;SDS011;4282;49.986;7.938;2023-04-16T12:30:12;20.70;;;15.37;;
8490;SDS011;4282;49.986;7.938;2023-04-16T12:32:41;21.97;;;15.23;;
8490;SDS011;4282;49.986;7.938;2023-04-16T12:35:10;26.70;;;15.87;;
8490;SDS011;4282;49.986;7.938;2023-04-16T12:37:39;23.23;;;16.60;;
8490;SDS011;4282;49.986;7.938;2023-04-16T12:40:07;23.27;;;14.90;;
8490;SDS011;4282;49.986;7.938;2023-04-16T12:42:36;21.70;;;16.10;;
8490;SDS011;4282;49.986;7.938;2023-04-16T12:45:07;24.33;;;16.30;;
8490;SDS011;4282;49.986;7.938;2023-04-16T12:47:35;21.53;;;16.13;;
8490;SDS011;4282;49.986;7.938;2023-04-16T12:50:04;21.53;;;15.33;;
8490;SDS011;4282;49.986;7.938;2023-04-16T12:52:33;23.67;;;15.53;;
8490;SDS011;4282;49.986;7.938;2023-04-16T12:55:01;20.23;;;14.73;;
8490;SDS011;4282;49.986;7.938;2023-04-16T12:57:30;21.57;;;15.27;;
8490;SDS011;4282;49.986;7.938;2023-04-16T12:59:58;22.07;;;16.37;;
8490;SDS011;4282;49.986;7.938;2023-04-16T13:02:28;19.53;;;14.97;;
8490;SDS011;4282;49.986;7.938;2023-04-16T13:04:57;22.53;;;15.50;;
8490;SDS011;4282;49.986;7.938;2023-04-16T13:07:25;22.27;;;15.23;;
8490;SDS011;4282;49.986;7.938;2023-04-16T13:09:55;20.23;;;14.87;;
8490;SDS011;4282;49.986;7.938;2023-04-16T13:12:24;18.67;;;13.93;;
8490;SDS011;4282;49.986;7.938;2023-04-16T13:14:52;21.70;;;15.10;;
8490;SDS011;4282;49.986;7.938;2023-04-16T13:17:20;21.30;;;15.97;;
8490;SDS011;4282;49.986;7.938;2023-04-16T13:19:51;18.43;;;14.27;;
8490;SDS011;4282;49.986;7.938;2023-04-16T13:22:19;19.43;;;14.87;;
8490;SDS011;4282;49.986;7.938;2023-04-16T13:24:48;23.80;;;14.87;;
8490;SDS011;4282;49.986;7.938;2023-04-16T13:27:16;18.07;;;13.60;;
8490;SDS011;4282;49.986;7.938;2023-04-16T13:29:45;18.30;;;14.33;;
8490;SDS011;4282;49.986;7.938;2023-04-16T13:32:13;18.97;;;13.63;;
8490;SDS011;4282;49.986;7.938;2023-04-16T13:34:42;17.93;;;13.80;;
8490;SDS011;4282;49.986;7.938;2023-04-16T13:37:13;19.63;;;14.17;;
8490;SDS011;4282;49.986;7.938;2023-04-16T13:39:42;18.33;;;15.07;;
8490;SDS011;4282;49.986;7.938;2023-04-16T13:42:10;19.20;;;14.07;;
8490;SDS011;4282;49.986;7.938;2023-04-16T13:44:38;19.57;;;15.43;;
8490;SDS011;4282;49.986;7.938;2023-04-16T13:47:06;20.63;;;14.40;;
8490;SDS011;4282;49.986;7.938;2023-04-16T13:49:35;18.23;;;14.60;;
8490;SDS011;4282;49.986;7.938;2023-04-16T13:52:03;16.87;;;14.37;;
8490;SDS011;4282;49.986;7.938;2023-04-16T13:54:34;19.03;;;12.63;;
8490;SDS011;4282;49.986;7.938;2023-04-16T13:57:02;20.13;;;13.57;;
8490;SDS011;4282;49.986;7.938;2023-04-16T13:59:30;20.77;;;13.77;;
8490;SDS011;4282;49.986;7.938;2023-04-16T14:01:59;18.37;;;13.60;;
8490;SDS011;4282;49.986;7.938;2023-04-16T14:04:27;21.50;;;14.93;;
8490;SDS011;4282;49.986;7.938;2023-04-16T14:06:55;19.03;;;14.27;;
8490;SDS011;4282;49.986;7.938;2023-04-16T14:09:24;18.53;;;14.30;;
8490;SDS011;4282;49.986;7.938;2023-04-16T14:11:55;16.60;;;12.70;;
8490;SDS011;4282;49.986;7.938;2023-04-16T14:14:23;17.43;;;12.87;;
8490;SDS011;4282;49.986;7.938;2023-04-16T14:16:52;17.67;;;13.73;;
8490;SDS011;4282;49.986;7.938;2023-04-16T14:19:21;19.10;;;13.43;;
8490;SDS011;4282;49.986;7.938;2023-04-16T14:21:49;16.63;;;13.20;;
8490;SDS011;4282;49.986;7.938;2023-04-16T14:24:18;18.50;;;12.70;;
8490;SDS011;4282;49.986;7.938;2023-04-16T14:26:46;17.73;;;13.50;;
8490;SDS011;4282;49.986;7.938;2023-04-16T14:29:17;16.57;;;11.93;;
8490;SDS011;4282;49.986;7.938;2023-04-16T14:31:45;17.63;;;12.27;;
8490;SDS011;4282;49.986;7.938;2023-04-16T14:34:14;16.27;;;12.33;;
8490;SDS011;4282;49.986;7.938;2023-04-16T14:36:42;14.83;;;12.23;;
8490;SDS011;4282;49.986;7.938;2023-04-16T14:39:10;17.67;;;12.40;;
8490;SDS011;4282;49.986;7.938;2023-04-16T14:41:39;12.73;;;10.50;;
8490;SDS011;4282;49.986;7.938;2023-04-16T14:44:08;14.63;;;11.40;;
8490;SDS011;4282;49.986;7.938;2023-04-16T14:46:39;15.80;;;11.27;;
8490;SDS011;4282;49.986;7.938;2023-04-16T14:49:07;14.70;;;10.83;;
8490;SDS011;4282;49.986;7.938;2023-04-16T14:51:36;15.53;;;12.13;;
8490;SDS011;4282;49.986;7.938;2023-04-16T14:54:04;14.27;;;10.43;;
8490;SDS011;4282;49.986;7.938;2023-04-16T14:56:33;12.57;;;10.47;;
8490;SDS011;4282;49.986;7.938;2023-04-16T14:59:01;13.53;;;10.70;;
8490;SDS011;4282;49.986;7.938;2023-04-16T15:01:29;15.97;;;11.50;;
8490;SDS011;4282;49.986;7.938;2023-04-16T15:04:01;13.50;;;10.97;;
8490;SDS011;4282;49.986;7.938;2023-04-16T15:06:29;14.40;;;12.13;;
8490;SDS011;4282;49.986;7.938;2023-04-16T15:08:57;16.37;;;11.90;;
8490;SDS011;4282;49.986;7.938;2023-04-16T15:11:26;15.50;;;10.93;;
8490;SDS011;4282;49.986;7.938;2023-04-16T15:13:54;13.97;;;11.13;;
8490;SDS011;4282;49.986;7.938;2023-04-16T15:16:22;15.07;;;11.23;;